Weather at Coonabarabran Airport

Public forecast

Using degrees Celsius for public forecast. Weather courtesy of forecast.io.

Current aviation weather report (METAR) for Coonabarabran Airport

Retrieved 2021/04/14 05:00 UTC (15 minutes ago):

YCBB 140500Z AUTO 30011KT 9999 // NCD 22/05 Q1017

Closest aviation forecast (TAF) to Coonabarabran Airport

Closest forecast is Dubbo City Regional Airport, 63.8 nm (118.1 km) SSW. Retrieved 2021-04-14 00:36 UTC (5 hours ago):

TAF YSDU 132331Z 1400/1418 34010KT CAVOK BECMG 1412/1414 21008KT CAVOK